Current Weather Conditions: station 63115

sailwx.info

Last reported at 2017-Aug-14 20:59 UTC.
Time now 2017-Nov-25 02:05 UTC

Location: N 61°36' E 001°18'.
View on Google Maps.

See reports from other nearby stations

  
Tides and Currents Weather Stations Pressure Air Temp Water Temp Dewpoint Dewpoint Depression Visibility Wind Speed Wind Dir Waves Ship Positions
date/time (UTC)wind fromknots sea level pressurealtimeterstation pressurevisibilityair tempwater tempwave heightnotes
2017-Nov-25 01:00 230 26 10.8 4.0 5.0
2017-Nov-25 00:00 240 25 10.8 5.3 4.8
2017-Nov-24 23:00 250 24 10.8 4.7 4.9
2017-Nov-24 22:00 250 21 27.0 5.2 4.5
2017-Nov-24 21:00 250 21 10.8 5.4 4.5
2017-Nov-24 20:00 250 21 5.4 4.7 4.8
2017-Nov-24 19:00 230 20 10.8 5.6 4.7
2017-Nov-24 18:00 240 20 10.8 5.1 5.2
2017-Nov-24 17:00 250 24 27.0 5.8 5.4
2017-Nov-24 16:00 250 26 10.8 5.8 5.5
2017-Nov-24 15:00 240 27 10.8 5.8 6.1
2017-Nov-24 14:00 240 28 10.8 5.6 5.9
2017-Nov-24 13:00 240 31 10.8 5.6 6.1
2017-Nov-24 12:00 250 28 10.8 5.6 6.0
2017-Nov-24 11:00 250 33 10.8 5.0 6.7
2017-Nov-24 10:00 240 31 10.8 5.7 6.7
2017-Nov-24 09:00 240 32 10.8 6.1 6.1
2017-Nov-24 08:00 240 34 10.8 6.0 7.1
2017-Nov-24 07:00 250 34 5.4 6.0 6.8
2017-Nov-24 06:00 240 36 5.4 6.0 6.9
2017-Nov-24 05:00 240 34 10.8 5.6 6.3
2017-Nov-24 04:00 240 35 5.4 6.2 6.8
2017-Nov-24 03:00 240 36 5.4 6.2 6.4
2017-Nov-23 19:00 230 27 27.0 4.7 3.8
2017-Nov-23 18:00 240 26 10.8 5.4 3.7
2017-Nov-23 17:00 260 27 10.8 5.4 3.4
2017-Nov-23 16:00 270 27 27.0 5.0 3.1
2017-Nov-23 15:00 280 21 27.0 4.7 3.0
2017-Nov-23 14:00 260 12 27.0 4.4 3.1
2017-Nov-23 13:00 250 14 27.0 5.0 3.1
2017-Nov-23 12:00 260 13 27.0 5.1 2.8
2017-Nov-23 11:00 280 13 27.0 4.8 2.8
2017-Nov-23 10:00 290 11 27.0 4.5 2.9
2017-Nov-23 09:00 310 13 10.8 4.0 2.8
2017-Nov-23 08:00 270 2 2.2 4.0 2.9
2017-Nov-23 07:00 310 12 27.0 4.2 2.8
2017-Nov-23 06:00 310 7 27.0 4.2 2.7
2017-Nov-23 05:00 320 13 27.0 4.3 2.8
2017-Nov-23 04:00 300 13 27.0 3.7 2.8
2017-Nov-23 03:00 310 13 27.0 3.7 2.9
2017-Nov-23 02:00 320 9 27.0 4.0 2.8